createdAt,value
2018-11-25T00:00:41.009Z,97124.91
2018-11-25T00:03:08.627Z,97129.08
2018-11-25T00:05:36.259Z,97123.78
2018-11-25T00:08:03.992Z,97128.14
2018-11-25T00:10:31.653Z,97119.41
2018-11-25T00:12:59.311Z,97114.28
2018-11-25T00:15:26.920Z,97112.03
2018-11-25T00:17:54.618Z,97107.89
2018-11-25T00:20:22.286Z,97105.28
2018-11-25T00:22:49.954Z,97095.09
2018-11-25T00:25:17.617Z,97094.84
2018-11-25T00:27:45.253Z,97102.34
2018-11-25T00:30:13.398Z,97098.30
2018-11-25T00:32:41.130Z,97091.94
2018-11-25T00:35:09.456Z,97092.16
2018-11-25T00:37:37.154Z,97092.05
2018-11-25T00:40:05.695Z,97088.02
2018-11-25T00:42:33.430Z,97090.59
2018-11-25T00:45:01.063Z,97084.88
2018-11-25T00:47:28.735Z,97086.01
2018-11-25T00:49:56.390Z,97081.28
2018-11-25T00:52:24.002Z,97088.45
2018-11-25T00:54:51.706Z,97088.89
2018-11-25T00:57:19.374Z,97092.59
2018-11-25T00:59:47.035Z,97099.89
2018-11-25T01:02:14.836Z,97091.47
2018-11-25T01:04:42.562Z,97096.77
2018-11-25T01:07:10.236Z,97097.42
2018-11-25T01:09:37.889Z,97094.41
2018-11-25T01:12:05.875Z,97095.50
2018-11-25T01:14:33.545Z,97102.22
2018-11-25T01:17:01.177Z,97103.35
2018-11-25T01:19:28.871Z,97105.02
2018-11-25T01:21:56.511Z,97099.97
2018-11-25T01:24:24.165Z,97101.31
2018-11-25T01:26:51.934Z,97093.36
2018-11-25T01:29:19.705Z,97089.80
2018-11-25T01:31:47.457Z,97088.66
2018-11-25T01:34:15.086Z,97086.66
2018-11-25T01:36:42.822Z,97086.52
2018-11-25T01:39:10.554Z,97078.78
2018-11-25T01:41:38.216Z,97076.42
2018-11-25T01:44:05.887Z,97080.38
2018-11-25T01:46:33.543Z,97075.77
2018-11-25T01:49:01.199Z,97070.64
2018-11-25T01:51:28.853Z,97063.63
2018-11-25T01:53:56.533Z,97069.59
2018-11-25T01:56:24.187Z,97069.70
2018-11-25T01:58:51.949Z,97059.63
2018-11-25T02:01:19.609Z,97059.19
2018-11-25T02:03:47.281Z,97055.92
2018-11-25T02:06:14.966Z,97057.92
2018-11-25T02:08:42.594Z,97056.91
2018-11-25T02:11:10.372Z,97053.81
2018-11-25T02:13:37.989Z,97054.14
2018-11-25T02:16:05.933Z,97042.55
2018-11-25T02:18:33.662Z,97041.35
2018-11-25T02:21:01.312Z,97051.31
2018-11-25T02:23:28.984Z,97053.13
2018-11-25T02:25:56.642Z,97053.31
2018-11-25T02:28:24.258Z,97051.75
2018-11-25T02:30:51.962Z,97042.66
2018-11-25T02:33:19.650Z,97042.45
2018-11-25T02:35:47.403Z,97037.31
2018-11-25T02:38:15.026Z,97036.98
2018-11-25T02:40:42.642Z,97039.54
2018-11-25T02:43:10.265Z,97028.56
2018-11-25T02:45:37.940Z,97018.57
2018-11-25T02:48:05.575Z,97013.20
2018-11-25T02:50:33.946Z,97009.93
2018-11-25T02:53:02.158Z,97009.93
2018-11-25T02:55:29.790Z,97009.73
2018-11-25T02:57:57.511Z,97014.54
2018-11-25T03:00:25.133Z,97012.42
2018-11-25T03:02:52.856Z,97015.45
2018-11-25T03:05:20.589Z,97014.87
2018-11-25T03:07:48.237Z,97014.79
2018-11-25T03:10:15.857Z,97011.63
2018-11-25T03:12:43.554Z,97005.02
2018-11-25T03:15:11.848Z,97005.02
2018-11-25T03:17:39.469Z,97008.37
2018-11-25T03:20:08.191Z,97016.10
2018-11-25T03:22:35.849Z,97013.49
2018-11-25T03:25:03.500Z,97017.20
2018-11-25T03:27:31.129Z,97014.30
2018-11-25T03:29:58.748Z,97010.48
2018-11-25T03:32:26.407Z,97008.03
2018-11-25T03:34:54.107Z,97008.12
2018-11-25T03:37:21.731Z,97009.05
2018-11-25T03:39:49.349Z,97006.23
2018-11-25T03:42:16.975Z,96999.61
2018-11-25T03:44:44.609Z,96992.23
2018-11-25T03:47:12.230Z,96993.00
2018-11-25T03:49:39.837Z,96984.71
2018-11-25T03:52:07.462Z,96984.71
2018-11-25T03:54:35.077Z,96985.16
2018-11-25T03:57:02.710Z,96988.53
2018-11-25T03:59:30.460Z,96983.37
2018-11-25T04:01:58.074Z,96974.51
2018-11-25T04:04:25.709Z,96976.18
2018-11-25T04:06:53.448Z,96975.16
2018-11-25T04:09:21.159Z,96975.28
2018-11-25T04:11:48.783Z,96969.22
2018-11-25T04:14:16.406Z,96963.04
2018-11-25T04:16:44.056Z,96962.91
2018-11-25T04:19:11.703Z,96962.16
2018-11-25T04:21:39.335Z,96962.03
2018-11-25T04:24:06.952Z,96957.66
2018-11-25T04:26:34.574Z,96961.36
2018-11-25T04:29:02.202Z,96960.93
2018-11-25T04:31:29.824Z,96956.10
2018-11-25T04:33:57.437Z,96951.73
2018-11-25T04:36:25.055Z,96945.81
2018-11-25T04:38:52.678Z,96947.16
2018-11-25T04:41:20.335Z,96943.89
2018-11-25T04:43:47.998Z,96939.31
2018-11-25T04:46:15.609Z,96938.63
2018-11-25T04:48:43.235Z,96940.98
2018-11-25T04:51:10.858Z,96939.25
2018-11-25T04:53:38.474Z,96939.64
2018-11-25T04:56:06.118Z,96929.16
2018-11-25T04:58:33.746Z,96931.30
2018-11-25T05:01:01.374Z,96929.08
2018-11-25T05:03:29.001Z,96933.11
2018-11-25T05:05:56.620Z,96931.19
2018-11-25T05:08:24.250Z,96935.55
2018-11-25T05:10:51.871Z,96929.30
2018-11-25T05:13:19.603Z,96929.16
2018-11-25T05:15:47.236Z,96927.81
2018-11-25T05:18:14.841Z,96935.34
2018-11-25T05:20:42.466Z,96931.30
2018-11-25T05:23:10.088Z,96926.80
2018-11-25T05:25:37.743Z,96928.40
2018-11-25T05:28:05.501Z,96927.60
2018-11-25T05:30:33.125Z,96926.59
2018-11-25T05:33:00.764Z,96928.15
2018-11-25T05:35:28.418Z,96921.09
2018-11-25T05:37:56.033Z,96914.95
2018-11-25T05:40:23.675Z,96918.05
2018-11-25T05:42:51.299Z,96917.51
2018-11-25T05:45:19.317Z,96918.05
2018-11-25T05:47:46.984Z,96915.27
2018-11-25T05:50:15.107Z,96913.01
2018-11-25T05:52:42.751Z,96906.27
2018-11-25T05:55:10.946Z,96909.64
2018-11-25T05:57:38.584Z,96903.83
2018-11-25T06:00:08.615Z,96901.47
2018-11-25T06:02:36.234Z,96891.59
2018-11-25T06:05:03.871Z,96891.48
2018-11-25T06:07:31.494Z,96900.81
2018-11-25T06:09:59.125Z,96902.70
2018-11-25T06:12:26.745Z,96897.55
2018-11-25T06:14:54.350Z,96900.23
2018-11-25T06:17:21.966Z,96897.68
2018-11-25T06:19:49.589Z,96893.43
2018-11-25T06:22:17.255Z,96897.79
2018-11-25T06:24:44.874Z,96899.68
2018-11-25T06:27:12.568Z,96832.41
2018-11-25T06:29:40.178Z,96906.19
2018-11-25T06:32:07.803Z,96902.02
2018-11-25T06:34:35.451Z,96902.92
2018-11-25T06:37:03.066Z,96900.15
2018-11-25T06:39:30.706Z,96898.13
2018-11-25T06:41:58.365Z,96899.47
2018-11-25T06:44:25.986Z,96892.06
2018-11-25T06:46:53.854Z,96888.03
2018-11-25T06:49:21.483Z,96892.06
2018-11-25T06:51:49.118Z,96897.79
2018-11-25T06:54:16.727Z,96888.38
2018-11-25T06:56:44.383Z,96890.49
2018-11-25T06:59:11.997Z,96890.83
2018-11-25T07:01:39.723Z,96887.78
2018-11-25T07:04:07.793Z,96884.88
2018-11-25T07:06:35.457Z,96883.31
2018-11-25T07:09:03.247Z,96876.13
2018-11-25T07:11:30.882Z,96882.73
2018-11-25T07:13:58.511Z,96881.06
2018-11-25T07:16:26.126Z,96881.72
2018-11-25T07:18:53.757Z,96887.67
2018-11-25T07:21:21.427Z,96889.02
2018-11-25T07:23:49.096Z,96888.36
2018-11-25T07:26:16.785Z,96880.30
2018-11-25T07:28:44.434Z,96888.36
2018-11-25T07:31:12.136Z,96889.13
2018-11-25T07:33:39.800Z,96893.81
2018-11-25T07:36:07.428Z,96882.19
2018-11-25T07:38:35.049Z,96880.38
2018-11-25T07:41:02.676Z,96876.91
2018-11-25T07:43:30.295Z,96874.98
2018-11-25T07:45:57.944Z,96871.53
2018-11-25T07:48:25.573Z,96876.79
2018-11-25T07:50:53.185Z,96876.11
2018-11-25T07:53:20.839Z,96878.59
2018-11-25T07:55:48.485Z,96882.38
2018-11-25T07:58:16.154Z,96878.35
2018-11-25T08:00:43.783Z,96873.89
2018-11-25T08:03:11.420Z,96868.05
2018-11-25T08:05:39.034Z,96867.72
2018-11-25T08:08:06.774Z,96865.14
2018-11-25T08:10:34.384Z,96866.38
2018-11-25T08:13:02.077Z,96859.98
2018-11-25T08:15:29.689Z,96856.97
2018-11-25T08:17:57.310Z,96854.72
2018-11-25T08:20:24.965Z,96848.33
2018-11-25T08:22:52.586Z,96853.48
2018-11-25T08:25:20.714Z,96846.11
2018-11-25T08:27:48.345Z,96849.45
2018-11-25T08:30:16.530Z,96848.91
2018-11-25T08:32:44.186Z,96839.03
2018-11-25T08:35:12.323Z,96835.25
2018-11-25T08:37:39.969Z,96828.20
2018-11-25T08:40:09.438Z,96833.47
2018-11-25T08:42:37.062Z,96835.00
2018-11-25T08:45:04.841Z,96830.09
2018-11-25T08:47:32.486Z,96828.07
2018-11-25T08:50:00.119Z,96825.05
2018-11-25T08:52:27.778Z,96823.49
2018-11-25T08:54:55.404Z,96821.24
2018-11-25T08:57:23.026Z,96816.99
2018-11-25T08:59:50.654Z,96816.55
2018-11-25T09:02:18.370Z,96818.00
2018-11-25T09:04:46.001Z,96804.22
2018-11-25T09:07:13.615Z,96810.27
2018-11-25T09:09:41.234Z,96804.79
2018-11-25T09:12:08.890Z,96804.91
2018-11-25T09:14:36.594Z,96801.67
2018-11-25T09:17:04.242Z,96797.75
2018-11-25T09:19:31.867Z,96794.70
2018-11-25T09:21:59.927Z,96787.90
2018-11-25T09:24:27.157Z,96786.09
2018-11-25T09:26:54.845Z,96785.55
2018-11-25T09:29:22.464Z,96780.62
2018-11-25T09:31:50.099Z,96787.90
2018-11-25T09:34:17.731Z,96777.81
2018-11-25T09:36:45.382Z,96767.73
2018-11-25T09:39:12.999Z,96763.25
2018-11-25T09:41:40.617Z,96762.69
2018-11-25T09:44:08.281Z,96762.36
2018-11-25T09:46:42.452Z,96765.59
2018-11-25T09:49:03.582Z,96760.68
2018-11-25T09:51:31.215Z,96752.84
2018-11-25T09:53:58.852Z,96743.09
2018-11-25T09:56:26.491Z,96738.64
2018-11-25T09:58:54.130Z,96733.80
2018-11-25T10:01:21.764Z,96733.47
2018-11-25T10:03:49.394Z,96732.80
2018-11-25T10:06:17.029Z,96725.63
2018-11-25T10:08:44.721Z,96720.16
2018-11-25T10:11:12.368Z,96722.06
2018-11-25T10:13:40.006Z,96716.14
2018-11-25T10:16:07.763Z,96710.42
2018-11-25T10:18:35.384Z,96709.86
2018-11-25T10:21:03.001Z,96709.52
2018-11-25T10:23:30.625Z,96710.98
2018-11-25T10:25:58.290Z,96699.00
2018-11-25T10:28:25.909Z,96695.73
2018-11-25T10:30:53.520Z,96702.23
2018-11-25T10:33:21.150Z,96702.02
2018-11-25T10:35:48.779Z,96697.86
2018-11-25T10:38:16.409Z,96591.66
2018-11-25T10:40:44.030Z,96701.10
2018-11-25T10:43:11.665Z,96699.89
2018-11-25T10:45:39.289Z,96688.34
2018-11-25T10:48:06.950Z,96688.34
2018-11-25T10:50:34.579Z,96679.95
2018-11-25T10:53:02.207Z,96675.83
2018-11-25T10:55:29.835Z,96672.22
2018-11-25T10:57:57.459Z,96667.97
2018-11-25T11:00:33.853Z,96666.64
2018-11-25T11:03:06.706Z,96662.05
2018-11-25T11:05:39.824Z,96664.28
2018-11-25T11:08:07.783Z,96662.27
2018-11-25T11:10:35.429Z,96651.41
2018-11-25T11:13:03.119Z,96639.44
2018-11-25T11:15:30.789Z,96637.64
2018-11-25T11:17:58.427Z,96630.38
2018-11-25T11:20:26.043Z,96621.98
2018-11-25T11:22:53.681Z,96622.19
2018-11-25T11:25:21.301Z,96617.83
2018-11-25T11:27:48.927Z,96613.45
2018-11-25T11:30:16.565Z,96604.73
2018-11-25T11:32:44.966Z,96599.14
2018-11-25T11:35:12.631Z,96594.90
2018-11-25T11:37:40.255Z,96582.69
2018-11-25T11:40:10.095Z,96590.20
2018-11-25T11:42:37.220Z,96589.28
2018-11-25T11:45:05.737Z,96583.70
2018-11-25T11:47:33.379Z,96577.86
2018-11-25T11:50:01.026Z,96574.08
2018-11-25T11:52:28.658Z,96576.98
2018-11-25T11:54:56.282Z,96577.77
2018-11-25T11:57:23.901Z,96566.91
2018-11-25T11:59:51.517Z,96570.14
2018-11-25T12:02:19.198Z,96573.41
2018-11-25T12:04:46.828Z,96560.65
2018-11-25T12:07:14.454Z,96560.98
2018-11-25T12:09:42.111Z,96559.06
2018-11-25T12:12:09.733Z,96557.72
2018-11-25T12:14:37.390Z,96553.02
2018-11-25T12:17:05.142Z,96544.06
2018-11-25T12:19:32.761Z,96543.52
2018-11-25T12:22:00.408Z,96539.83
2018-11-25T12:24:28.055Z,96531.19
2018-11-25T12:26:55.695Z,96528.70
2018-11-25T12:29:23.337Z,96530.09
2018-11-25T12:31:50.964Z,96532.09
2018-11-25T12:34:18.598Z,96533.11
2018-11-25T12:36:46.233Z,96526.83
2018-11-25T12:39:13.863Z,96533.33
2018-11-25T12:41:41.506Z,96524.93
2018-11-25T12:44:09.130Z,96520.45
2018-11-25T12:46:36.765Z,96524.14
2018-11-25T12:49:04.531Z,96514.98
2018-11-25T12:51:32.211Z,96511.72
2018-11-25T12:53:59.846Z,96510.70
2018-11-25T12:56:27.478Z,96509.61
2018-11-25T12:58:55.086Z,96503.45
2018-11-25T13:01:22.713Z,96502.65
2018-11-25T13:03:50.332Z,96494.92
2018-11-25T13:06:17.952Z,96493.70
2018-11-25T13:08:45.695Z,96492.16
2018-11-25T13:11:13.314Z,96485.98
2018-11-25T13:13:40.966Z,96482.63
2018-11-25T13:16:08.610Z,96493.50
2018-11-25T13:18:36.223Z,96490.56
2018-11-25T13:21:03.851Z,96480.62
2018-11-25T13:23:31.493Z,96480.28
2018-11-25T13:25:59.118Z,96473.68
2018-11-25T13:28:26.750Z,96480.73
2018-11-25T13:30:54.365Z,96479.05
2018-11-25T13:33:22.002Z,96474.45
2018-11-25T13:35:49.677Z,96472.78
2018-11-25T13:38:17.290Z,96471.88
2018-11-25T13:40:45.003Z,96471.33
2018-11-25T13:43:12.626Z,96470.21
2018-11-25T13:45:40.274Z,96459.68
2018-11-25T13:48:07.916Z,96463.27
2018-11-25T13:50:35.589Z,96452.53
2018-11-25T13:53:03.209Z,96450.61
2018-11-25T13:55:30.877Z,96450.73
2018-11-25T13:57:58.514Z,96445.48
2018-11-25T14:00:34.640Z,96438.31
2018-11-25T14:03:01.784Z,96439.99
2018-11-25T14:05:29.506Z,96438.44
2018-11-25T14:07:57.140Z,96436.97
2018-11-25T14:10:25.872Z,96435.28
2018-11-25T14:12:53.508Z,96432.73
2018-11-25T14:15:21.129Z,96433.06
2018-11-25T14:17:48.786Z,96430.25
2018-11-25T14:20:16.394Z,96430.13
2018-11-25T14:22:44.035Z,96431.38
2018-11-25T14:25:12.724Z,96435.07
2018-11-25T14:27:40.382Z,96435.75
2018-11-25T14:30:13.364Z,96434.41
2018-11-25T14:32:38.791Z,96432.61
2018-11-25T14:35:07.577Z,96429.26
2018-11-25T14:37:35.222Z,96434.97
2018-11-25T14:40:02.958Z,96427.91
2018-11-25T14:42:30.648Z,96431.83
2018-11-25T14:44:58.423Z,96436.44
2018-11-25T14:47:26.199Z,96439.80
2018-11-25T14:49:53.863Z,96441.14
2018-11-25T14:52:21.494Z,96439.46
2018-11-25T14:54:51.375Z,96441.23
2018-11-25T14:57:16.922Z,96441.91
2018-11-25T14:59:44.572Z,96450.97
2018-11-25T15:02:12.347Z,96450.08
2018-11-25T15:04:39.986Z,96454.90
2018-11-25T15:07:07.674Z,96451.63
2018-11-25T15:09:35.325Z,96455.23
2018-11-25T15:12:03.033Z,96459.69
2018-11-25T15:14:30.759Z,96455.23
2018-11-25T15:16:58.402Z,96451.08
2018-11-25T15:19:26.091Z,96454.99
2018-11-25T15:21:53.735Z,96451.88
2018-11-25T15:24:21.387Z,96452.89
2018-11-25T15:26:49.133Z,96454.57
2018-11-25T15:29:16.783Z,96456.46
2018-11-25T15:31:44.406Z,96447.86
2018-11-25T15:34:12.122Z,96450.76
2018-11-25T15:36:39.757Z,96449.42
2018-11-25T15:39:09.055Z,96447.31
2018-11-25T15:41:36.667Z,96447.20
2018-11-25T15:44:04.555Z,96443.84
2018-11-25T15:46:32.175Z,96445.39
2018-11-25T15:48:59.895Z,96448.33
2018-11-25T15:51:27.530Z,96446.06
2018-11-25T15:53:55.158Z,96452.56
2018-11-25T15:56:22.868Z,96462.97
2018-11-25T15:58:50.518Z,96461.75
2018-11-25T16:01:18.182Z,96460.16
2018-11-25T16:03:45.879Z,96465.77
2018-11-25T16:06:16.804Z,96460.95
2018-11-25T16:08:44.445Z,96455.92
2018-11-25T16:11:12.127Z,96458.61
2018-11-25T16:13:40.127Z,96456.13
2018-11-25T16:16:07.757Z,96461.29
2018-11-25T16:18:35.411Z,96461.97
2018-11-25T16:21:03.068Z,96461.16
2018-11-25T16:23:30.725Z,96459.36
2018-11-25T16:25:59.710Z,96455.13
2018-11-25T16:28:29.539Z,96460.62
2018-11-25T16:30:57.178Z,96455.25
2018-11-25T16:33:24.855Z,96461.75
2018-11-25T16:35:52.506Z,96448.75
2018-11-25T16:38:20.177Z,96448.20
2018-11-25T16:40:47.840Z,96446.07
2018-11-25T16:43:15.494Z,96450.56
2018-11-25T16:45:43.257Z,96447.99
2018-11-25T16:48:11.034Z,96444.30
2018-11-25T16:50:38.646Z,96444.30
2018-11-25T16:53:06.666Z,96434.78
2018-11-25T16:55:34.330Z,96441.50
2018-11-25T16:58:01.966Z,96439.70
2018-11-25T17:00:29.660Z,96434.33
2018-11-25T17:02:57.277Z,96442.29
2018-11-25T17:05:26.002Z,96440.38
2018-11-25T17:07:54.803Z,96443.64
2018-11-25T17:10:22.434Z,96446.87
2018-11-25T17:12:50.151Z,96444.39
2018-11-25T17:15:21.512Z,96440.61
2018-11-25T17:17:49.128Z,96437.34
2018-11-25T17:20:16.755Z,96432.98
2018-11-25T17:22:44.374Z,96432.98
2018-11-25T17:25:12.324Z,96438.47
2018-11-25T17:27:39.948Z,96433.66
2018-11-25T17:30:10.488Z,96432.31
2018-11-25T17:32:38.119Z,96434.00
2018-11-25T17:35:06.582Z,96430.55
2018-11-25T17:37:34.199Z,96435.13
2018-11-25T17:40:01.848Z,96428.84
2018-11-25T17:42:29.471Z,96430.40
2018-11-25T17:44:57.080Z,96438.66
2018-11-25T17:47:24.783Z,96438.02
2018-11-25T17:49:52.422Z,96442.48
2018-11-25T17:52:20.047Z,96436.11
2018-11-25T17:54:47.659Z,96434.33
2018-11-25T17:57:15.280Z,96430.95
2018-11-25T17:59:42.911Z,96431.55
2018-11-25T18:02:10.570Z,96440.13
2018-11-25T18:04:38.194Z,96440.92
2018-11-25T18:07:05.850Z,96440.01
2018-11-25T18:09:33.482Z,96444.28
2018-11-25T18:12:01.097Z,96456.23
2018-11-25T18:14:28.760Z,96444.28
2018-11-25T18:16:56.374Z,96447.39
2018-11-25T18:19:24.410Z,96443.82
2018-11-25T18:21:54.250Z,96445.66
2018-11-25T18:24:21.878Z,96444.28
2018-11-25T18:26:49.519Z,96453.92
2018-11-25T18:29:17.143Z,96443.64
2018-11-25T18:31:44.770Z,96450.10
2018-11-25T18:34:12.399Z,96445.98
2018-11-25T18:36:40.014Z,96440.61
2018-11-25T18:39:09.409Z,96434.56
2018-11-25T18:41:37.079Z,96439.82
2018-11-25T18:44:04.728Z,96438.00
2018-11-25T18:46:32.385Z,96434.22
2018-11-25T18:49:00.091Z,96439.00
2018-11-25T18:51:27.715Z,96433.30
2018-11-25T18:53:55.327Z,96425.16
2018-11-25T18:56:22.942Z,96428.52
2018-11-25T18:58:50.603Z,96427.84
2018-11-25T19:01:20.803Z,96428.72
2018-11-25T19:03:48.450Z,96433.97
2018-11-25T19:06:16.096Z,96427.26
2018-11-25T19:08:43.743Z,96426.92
2018-11-25T19:11:11.406Z,96432.44
2018-11-25T19:13:39.018Z,96421.34
2018-11-25T19:16:06.692Z,96423.69
2018-11-25T19:18:34.314Z,96416.77
2018-11-25T19:21:01.931Z,96422.13
2018-11-25T19:23:29.571Z,96424.03
2018-11-25T19:25:57.198Z,96421.67
2018-11-25T19:28:25.240Z,96420.45
2018-11-25T19:30:53.048Z,96419.67
2018-11-25T19:33:20.875Z,96415.77
2018-11-25T19:35:48.706Z,96415.18
2018-11-25T19:38:16.557Z,96410.73
2018-11-25T19:40:44.526Z,96413.63
2018-11-25T19:43:12.496Z,96408.71
2018-11-25T19:45:40.563Z,96412.83
2018-11-25T19:48:08.535Z,96412.95
2018-11-25T19:50:37.437Z,96415.30
2018-11-25T19:53:06.326Z,96421.80
2018-11-25T19:55:34.496Z,96421.22
2018-11-25T19:58:02.666Z,96419.33
2018-11-25T20:00:30.742Z,96416.64
2018-11-25T20:02:58.817Z,96420.34
2018-11-25T20:05:26.885Z,96422.56
2018-11-25T20:07:55.093Z,96422.35
2018-11-25T20:10:23.957Z,96421.13
2018-11-25T20:12:52.838Z,96418.66
2018-11-25T20:15:21.232Z,96412.16
2018-11-25T20:17:54.606Z,96413.96
2018-11-25T20:20:19.412Z,96411.49
2018-11-25T20:22:48.199Z,96405.45
2018-11-25T20:25:16.351Z,96400.66
2018-11-25T20:27:45.247Z,96392.37
2018-11-25T20:30:17.518Z,96389.14
2018-11-25T20:32:50.405Z,96386.37
2018-11-25T20:35:18.050Z,96382.00
2018-11-25T20:37:50.927Z,96381.63
2018-11-25T20:40:18.591Z,96378.07
2018-11-25T20:42:46.403Z,96386.13
2018-11-25T20:45:19.885Z,96388.47
2018-11-25T20:47:47.511Z,96389.14
2018-11-25T20:50:15.126Z,96389.47
2018-11-25T20:52:48.156Z,96381.09
2018-11-25T20:55:15.773Z,96380.41
2018-11-25T20:57:43.396Z,96382.00
2018-11-25T21:00:12.122Z,96379.87
2018-11-25T21:02:39.746Z,96381.88
2018-11-25T21:05:08.662Z,96381.09
2018-11-25T21:07:36.294Z,96379.75
2018-11-25T21:10:03.962Z,96376.97
2018-11-25T21:12:31.642Z,96370.59
2018-11-25T21:14:59.298Z,96368.92
2018-11-25T21:17:26.937Z,96367.34
2018-11-25T21:19:54.568Z,96359.95
2018-11-25T21:22:22.187Z,96368.45
2018-11-25T21:24:49.849Z,96366.32
2018-11-25T21:27:17.471Z,96366.88
2018-11-25T21:29:45.083Z,96367.79
2018-11-25T21:32:12.721Z,96363.77
2018-11-25T21:34:40.342Z,96361.42
2018-11-25T21:37:07.963Z,96369.02
2018-11-25T21:39:35.590Z,96370.01
2018-11-25T21:42:03.214Z,96371.69
2018-11-25T21:44:30.827Z,96378.53
2018-11-25T21:46:58.468Z,96371.02
2018-11-25T21:49:26.102Z,96363.75
2018-11-25T21:51:53.748Z,96359.27
2018-11-25T21:54:21.385Z,96364.84
2018-11-25T21:56:49.009Z,96364.42
2018-11-25T21:59:16.617Z,96361.83
2018-11-25T22:01:44.237Z,96352.55
2018-11-25T22:04:11.930Z,96354.44
2018-11-25T22:06:39.549Z,96360.50
2018-11-25T22:09:08.799Z,96353.13
2018-11-25T22:11:36.465Z,96358.39
2018-11-25T22:14:04.074Z,96354.69
2018-11-25T22:16:31.707Z,96354.37
2018-11-25T22:18:59.318Z,96349.89
2018-11-25T22:21:26.925Z,96343.64
2018-11-25T22:23:54.537Z,96342.97
2018-11-25T22:26:22.174Z,96343.63
2018-11-25T22:28:49.802Z,96339.70
2018-11-25T22:31:17.420Z,96343.97
2018-11-25T22:33:45.111Z,96345.39
2018-11-25T22:36:12.730Z,96340.94
2018-11-25T22:38:40.341Z,96343.29
2018-11-25T22:41:07.978Z,96344.52
2018-11-25T22:43:35.603Z,96354.79
2018-11-25T22:46:03.246Z,96354.37
2018-11-25T22:48:30.871Z,96349.66
2018-11-25T22:50:58.485Z,96354.23
2018-11-25T22:53:26.314Z,96360.84
2018-11-25T22:55:53.957Z,96356.47
2018-11-25T22:58:21.565Z,96355.70
2018-11-25T23:00:50.493Z,96358.94
2018-11-25T23:03:18.111Z,96367.45
2018-11-25T23:05:51.174Z,96359.39
2018-11-25T23:08:18.790Z,96358.27
2018-11-25T23:10:46.410Z,96361.74
2018-11-25T23:13:14.031Z,96360.27
2018-11-25T23:15:41.642Z,96362.83
2018-11-25T23:18:09.256Z,96362.30
2018-11-25T23:20:36.906Z,96359.05
2018-11-25T23:23:04.703Z,96355.79
2018-11-25T23:25:32.370Z,96360.06
2018-11-25T23:27:59.986Z,96359.73
2018-11-25T23:30:27.612Z,96353.13
2018-11-25T23:32:55.231Z,96353.57
2018-11-25T23:35:25.589Z,96352.69
2018-11-25T23:37:53.211Z,96354.45
2018-11-25T23:40:20.830Z,96356.05
2018-11-25T23:42:48.437Z,96348.33
2018-11-25T23:45:16.427Z,96346.39
2018-11-25T23:47:44.052Z,96346.07
2018-11-25T23:50:12.162Z,96348.19
2018-11-25T23:52:39.918Z,96346.64
2018-11-25T23:55:08.187Z,96343.16
2018-11-25T23:57:35.841Z,96344.97
